sensor_id;sensor_type;location;lat;lon;timestamp;temperature;humidity
66610;DHT22;53468;48.276;14.416;2024-03-07T00:02:19;6.30;82.90
66610;DHT22;53468;48.276;14.416;2024-03-07T00:07:21;6.20;83.40
66610;DHT22;53468;48.276;14.416;2024-03-07T00:12:25;6.00;84.60
66610;DHT22;53468;48.276;14.416;2024-03-07T00:17:28;5.80;85.00
66610;DHT22;53468;48.276;14.416;2024-03-07T00:22:30;5.70;84.30
66610;DHT22;53468;48.276;14.416;2024-03-07T00:27:33;5.50;84.80
66610;DHT22;53468;48.276;14.416;2024-03-07T00:32:36;5.40;84.30
66610;DHT22;53468;48.276;14.416;2024-03-07T00:37:39;5.20;84.40
66610;DHT22;53468;48.276;14.416;2024-03-07T00:42:43;5.20;84.30
66610;DHT22;53468;48.276;14.416;2024-03-07T00:47:45;5.10;84.10
66610;DHT22;53468;48.276;14.416;2024-03-07T00:52:49;5.00;84.10
66610;DHT22;53468;48.276;14.416;2024-03-07T00:57:52;4.90;83.90
66610;DHT22;53468;48.276;14.416;2024-03-07T01:02:54;4.80;84.40
66610;DHT22;53468;48.276;14.416;2024-03-07T01:07:57;4.70;83.90
66610;DHT22;53468;48.276;14.416;2024-03-07T01:13:00;4.60;84.60
66610;DHT22;53468;48.276;14.416;2024-03-07T01:18:03;4.40;85.20
66610;DHT22;53468;48.276;14.416;2024-03-07T01:23:05;4.30;85.80
66610;DHT22;53468;48.276;14.416;2024-03-07T01:28:09;4.00;86.00
66610;DHT22;53468;48.276;14.416;2024-03-07T01:33:13;3.90;87.10
66610;DHT22;53468;48.276;14.416;2024-03-07T01:38:16;3.90;87.90
66610;DHT22;53468;48.276;14.416;2024-03-07T01:43:19;4.00;88.50
66610;DHT22;53468;48.276;14.416;2024-03-07T01:48:25;4.10;89.60
66610;DHT22;53468;48.276;14.416;2024-03-07T01:53:30;4.20;89.20
66610;DHT22;53468;48.276;14.416;2024-03-07T01:58:34;4.20;88.60
66610;DHT22;53468;48.276;14.416;2024-03-07T02:03:37;4.20;87.80
66610;DHT22;53468;48.276;14.416;2024-03-07T02:08:39;4.20;88.20
66610;DHT22;53468;48.276;14.416;2024-03-07T02:13:43;4.30;89.10
66610;DHT22;53468;48.276;14.416;2024-03-07T02:18:45;4.30;88.50
66610;DHT22;53468;48.276;14.416;2024-03-07T02:23:48;4.40;89.30
66610;DHT22;53468;48.276;14.416;2024-03-07T02:28:50;4.40;89.50
66610;DHT22;53468;48.276;14.416;2024-03-07T02:33:52;4.50;89.00
66610;DHT22;53468;48.276;14.416;2024-03-07T02:38:56;4.50;88.80
66610;DHT22;53468;48.276;14.416;2024-03-07T02:43:58;4.50;86.90
66610;DHT22;53468;48.276;14.416;2024-03-07T02:49:01;4.60;86.40
66610;DHT22;53468;48.276;14.416;2024-03-07T02:54:05;4.70;87.70
66610;DHT22;53468;48.276;14.416;2024-03-07T02:59:08;4.70;87.70
66610;DHT22;53468;48.276;14.416;2024-03-07T03:04:10;4.80;88.40
66610;DHT22;53468;48.276;14.416;2024-03-07T03:09:13;4.80;86.90
66610;DHT22;53468;48.276;14.416;2024-03-07T03:14:18;4.80;89.60
66610;DHT22;53468;48.276;14.416;2024-03-07T03:19:20;4.80;87.70
66610;DHT22;53468;48.276;14.416;2024-03-07T03:24:25;4.90;88.60
66610;DHT22;53468;48.276;14.416;2024-03-07T03:29:27;4.90;89.70
66610;DHT22;53468;48.276;14.416;2024-03-07T03:34:29;4.90;89.50
66610;DHT22;53468;48.276;14.416;2024-03-07T03:39:33;4.90;89.80
66610;DHT22;53468;48.276;14.416;2024-03-07T03:44:35;5.00;89.50
66610;DHT22;53468;48.276;14.416;2024-03-07T03:49:37;5.00;89.90
66610;DHT22;53468;48.276;14.416;2024-03-07T03:54:40;5.00;90.50
66610;DHT22;53468;48.276;14.416;2024-03-07T03:59:43;5.00;90.00
66610;DHT22;53468;48.276;14.416;2024-03-07T04:04:45;5.00;90.10
66610;DHT22;53468;48.276;14.416;2024-03-07T04:09:48;4.90;90.50
66610;DHT22;53468;48.276;14.416;2024-03-07T04:14:50;4.80;90.60
66610;DHT22;53468;48.276;14.416;2024-03-07T04:19:52;4.80;90.90
66610;DHT22;53468;48.276;14.416;2024-03-07T04:24:56;4.70;91.10
66610;DHT22;53468;48.276;14.416;2024-03-07T04:29:58;4.70;91.10
66610;DHT22;53468;48.276;14.416;2024-03-07T04:35:03;4.70;90.90
66610;DHT22;53468;48.276;14.416;2024-03-07T04:40:10;4.70;90.70
66610;DHT22;53468;48.276;14.416;2024-03-07T04:45:17;4.70;91.00
66610;DHT22;53468;48.276;14.416;2024-03-07T04:50:19;4.70;91.00
66610;DHT22;53468;48.276;14.416;2024-03-07T04:55:22;4.60;91.10
66610;DHT22;53468;48.276;14.416;2024-03-07T05:00:25;4.70;91.10
66610;DHT22;53468;48.276;14.416;2024-03-07T05:05:27;4.70;91.20
66610;DHT22;53468;48.276;14.416;2024-03-07T05:10:31;4.70;91.50
66610;DHT22;53468;48.276;14.416;2024-03-07T05:15:33;4.80;91.50
66610;DHT22;53468;48.276;14.416;2024-03-07T05:20:34;4.70;91.50
66610;DHT22;53468;48.276;14.416;2024-03-07T05:25:38;4.60;91.60
66610;DHT22;53468;48.276;14.416;2024-03-07T05:30:40;4.70;91.90
66610;DHT22;53468;48.276;14.416;2024-03-07T05:35:42;4.80;91.70
66610;DHT22;53468;48.276;14.416;2024-03-07T05:40:46;4.70;91.70
66610;DHT22;53468;48.276;14.416;2024-03-07T05:45:48;4.60;91.60
66610;DHT22;53468;48.276;14.416;2024-03-07T05:50:50;4.60;92.20
66610;DHT22;53468;48.276;14.416;2024-03-07T05:55:54;4.70;92.10
66610;DHT22;53468;48.276;14.416;2024-03-07T06:00:56;4.70;92.00
66610;DHT22;53468;48.276;14.416;2024-03-07T06:05:58;4.70;92.00
66610;DHT22;53468;48.276;14.416;2024-03-07T06:11:02;4.70;91.60
66610;DHT22;53468;48.276;14.416;2024-03-07T06:16:04;4.70;91.40
66610;DHT22;53468;48.276;14.416;2024-03-07T06:21:08;4.80;91.60
66610;DHT22;53468;48.276;14.416;2024-03-07T06:26:14;4.80;91.70
66610;DHT22;53468;48.276;14.416;2024-03-07T06:31:27;4.90;91.70
66610;DHT22;53468;48.276;14.416;2024-03-07T06:36:29;4.90;92.00
66610;DHT22;53468;48.276;14.416;2024-03-07T06:41:33;4.90;92.20
66610;DHT22;53468;48.276;14.416;2024-03-07T06:46:35;5.00;91.60
66610;DHT22;53468;48.276;14.416;2024-03-07T06:51:37;5.20;91.80
66610;DHT22;53468;48.276;14.416;2024-03-07T06:56:41;5.40;91.20
66610;DHT22;53468;48.276;14.416;2024-03-07T07:01:44;5.50;89.60
66610;DHT22;53468;48.276;14.416;2024-03-07T07:06:46;5.50;88.80
66610;DHT22;53468;48.276;14.416;2024-03-07T07:11:49;5.60;89.80
66610;DHT22;53468;48.276;14.416;2024-03-07T07:16:51;5.70;90.20
66610;DHT22;53468;48.276;14.416;2024-03-07T07:21:53;5.90;89.40
66610;DHT22;53468;48.276;14.416;2024-03-07T07:26:57;6.00;86.50
66610;DHT22;53468;48.276;14.416;2024-03-07T07:31:59;6.20;87.10
66610;DHT22;53468;48.276;14.416;2024-03-07T07:37:01;6.40;86.90
66610;DHT22;53468;48.276;14.416;2024-03-07T07:42:05;6.60;86.30
66610;DHT22;53468;48.276;14.416;2024-03-07T07:47:07;6.80;85.40
66610;DHT22;53468;48.276;14.416;2024-03-07T07:52:09;7.00;83.00
66610;DHT22;53468;48.276;14.416;2024-03-07T07:57:12;7.00;81.00
66610;DHT22;53468;48.276;14.416;2024-03-07T08:02:14;6.80;79.60
66610;DHT22;53468;48.276;14.416;2024-03-07T08:07:16;6.90;80.40
66610;DHT22;53468;48.276;14.416;2024-03-07T08:12:20;7.00;81.30
66610;DHT22;53468;48.276;14.416;2024-03-07T08:17:23;7.10;81.20
66610;DHT22;53468;48.276;14.416;2024-03-07T08:22:26;7.20;80.70
66610;DHT22;53468;48.276;14.416;2024-03-07T08:27:29;7.20;77.80
66610;DHT22;53468;48.276;14.416;2024-03-07T08:32:31;7.00;77.80
66610;DHT22;53468;48.276;14.416;2024-03-07T08:37:35;7.00;77.80
66610;DHT22;53468;48.276;14.416;2024-03-07T08:42:40;7.10;77.30
66610;DHT22;53468;48.276;14.416;2024-03-07T08:47:43;7.40;77.50
66610;DHT22;53468;48.276;14.416;2024-03-07T08:52:46;7.50;74.30
66610;DHT22;53468;48.276;14.416;2024-03-07T08:57:49;7.40;76.00
66610;DHT22;53468;48.276;14.416;2024-03-07T09:02:53;7.50;75.20
66610;DHT22;53468;48.276;14.416;2024-03-07T09:07:55;7.50;75.40
66610;DHT22;53468;48.276;14.416;2024-03-07T09:12:59;7.60;75.30
66610;DHT22;53468;48.276;14.416;2024-03-07T09:23:09;7.70;75.20
66610;DHT22;53468;48.276;14.416;2024-03-07T09:33:24;7.80;75.30
66610;DHT22;53468;48.276;14.416;2024-03-07T09:38:26;7.80;74.10
66610;DHT22;53468;48.276;14.416;2024-03-07T09:48:40;8.00;74.10
66610;DHT22;53468;48.276;14.416;2024-03-07T09:53:42;8.10;73.80
66610;DHT22;53468;48.276;14.416;2024-03-07T10:09:09;8.40;71.40
66610;DHT22;53468;48.276;14.416;2024-03-07T10:19:24;8.80;71.50
66610;DHT22;53468;48.276;14.416;2024-03-07T10:24:28;8.80;70.60
66610;DHT22;53468;48.276;14.416;2024-03-07T10:40:03;8.70;68.80
66610;DHT22;53468;48.276;14.416;2024-03-07T10:45:17;8.70;69.90
66610;DHT22;53468;48.276;14.416;2024-03-07T10:50:32;8.70;71.00
66610;DHT22;53468;48.276;14.416;2024-03-07T10:55:48;8.80;71.40
66610;DHT22;53468;48.276;14.416;2024-03-07T11:00:55;8.90;69.70
66610;DHT22;53468;48.276;14.416;2024-03-07T11:05:59;9.00;70.00
66610;DHT22;53468;48.276;14.416;2024-03-07T11:11:07;9.00;71.10
66610;DHT22;53468;48.276;14.416;2024-03-07T11:16:10;9.10;70.50
66610;DHT22;53468;48.276;14.416;2024-03-07T11:21:42;9.20;68.80
66610;DHT22;53468;48.276;14.416;2024-03-07T11:26:47;9.10;68.00
66610;DHT22;53468;48.276;14.416;2024-03-07T11:31:53;9.10;69.20
66610;DHT22;53468;48.276;14.416;2024-03-07T11:36:55;9.00;69.10
66610;DHT22;53468;48.276;14.416;2024-03-07T11:42:02;9.10;69.70
66610;DHT22;53468;48.276;14.416;2024-03-07T11:47:07;9.10;68.70
66610;DHT22;53468;48.276;14.416;2024-03-07T11:52:10;9.20;66.60
66610;DHT22;53468;48.276;14.416;2024-03-07T11:57:17;9.20;70.30
66610;DHT22;53468;48.276;14.416;2024-03-07T12:02:20;9.10;70.00
66610;DHT22;53468;48.276;14.416;2024-03-07T12:07:23;8.90;71.10
66610;DHT22;53468;48.276;14.416;2024-03-07T12:12:27;8.70;71.50
66610;DHT22;53468;48.276;14.416;2024-03-07T12:17:31;8.50;70.10
66610;DHT22;53468;48.276;14.416;2024-03-07T12:22:36;8.50;73.70
66610;DHT22;53468;48.276;14.416;2024-03-07T12:27:39;8.50;71.80
66610;DHT22;53468;48.276;14.416;2024-03-07T12:32:47;8.50;73.50
66610;DHT22;53468;48.276;14.416;2024-03-07T12:37:50;8.50;72.50
66610;DHT22;53468;48.276;14.416;2024-03-07T12:42:54;8.60;72.30
66610;DHT22;53468;48.276;14.416;2024-03-07T12:47:56;8.80;73.10
66610;DHT22;53468;48.276;14.416;2024-03-07T12:53:05;9.00;74.40
66610;DHT22;53468;48.276;14.416;2024-03-07T12:58:14;8.70;73.90
66610;DHT22;53468;48.276;14.416;2024-03-07T13:03:16;8.50;76.70
66610;DHT22;53468;48.276;14.416;2024-03-07T13:08:18;8.40;75.90
66610;DHT22;53468;48.276;14.416;2024-03-07T13:13:22;8.30;75.30
66610;DHT22;53468;48.276;14.416;2024-03-07T13:18:24;8.30;74.20
66610;DHT22;53468;48.276;14.416;2024-03-07T13:23:26;8.20;75.40
66610;DHT22;53468;48.276;14.416;2024-03-07T13:28:30;8.10;77.40
66610;DHT22;53468;48.276;14.416;2024-03-07T13:33:34;8.10;78.70
66610;DHT22;53468;48.276;14.416;2024-03-07T13:38:39;8.20;75.80
66610;DHT22;53468;48.276;14.416;2024-03-07T13:43:42;8.10;76.80
66610;DHT22;53468;48.276;14.416;2024-03-07T13:48:44;8.00;75.60
66610;DHT22;53468;48.276;14.416;2024-03-07T13:53:47;8.00;75.80
66610;DHT22;53468;48.276;14.416;2024-03-07T13:59:16;7.90;78.00
66610;DHT22;53468;48.276;14.416;2024-03-07T14:10:21;7.30;83.20
66610;DHT22;53468;48.276;14.416;2024-03-07T14:21:37;6.70;81.80
66610;DHT22;53468;48.276;14.416;2024-03-07T14:27:09;6.60;83.70
66610;DHT22;53468;48.276;14.416;2024-03-07T14:32:16;6.50;83.60
66610;DHT22;53468;48.276;14.416;2024-03-07T14:37:23;6.30;85.20
66610;DHT22;53468;48.276;14.416;2024-03-07T14:42:25;6.30;85.80
66610;DHT22;53468;48.276;14.416;2024-03-07T14:47:28;6.40;86.50
66610;DHT22;53468;48.276;14.416;2024-03-07T14:52:31;6.50;86.70
66610;DHT22;53468;48.276;14.416;2024-03-07T14:57:33;6.50;85.30
66610;DHT22;53468;48.276;14.416;2024-03-07T15:02:35;6.60;85.00
66610;DHT22;53468;48.276;14.416;2024-03-07T15:07:40;6.70;87.30
66610;DHT22;53468;48.276;14.416;2024-03-07T15:12:43;6.80;83.70
66610;DHT22;53468;48.276;14.416;2024-03-07T15:17:45;6.90;84.10
66610;DHT22;53468;48.276;14.416;2024-03-07T15:22:50;6.90;86.40
66610;DHT22;53468;48.276;14.416;2024-03-07T15:27:54;6.90;85.30
66610;DHT22;53468;48.276;14.416;2024-03-07T15:32:57;6.90;85.40
66610;DHT22;53468;48.276;14.416;2024-03-07T15:38:01;6.80;85.30
66610;DHT22;53468;48.276;14.416;2024-03-07T15:43:03;6.80;83.80
66610;DHT22;53468;48.276;14.416;2024-03-07T15:48:06;6.70;85.70
66610;DHT22;53468;48.276;14.416;2024-03-07T15:53:12;6.60;85.40
66610;DHT22;53468;48.276;14.416;2024-03-07T15:58:15;6.50;86.10
66610;DHT22;53468;48.276;14.416;2024-03-07T16:03:18;6.40;86.40
66610;DHT22;53468;48.276;14.416;2024-03-07T16:08:25;6.40;87.10
66610;DHT22;53468;48.276;14.416;2024-03-07T16:13:27;6.30;86.80
66610;DHT22;53468;48.276;14.416;2024-03-07T16:18:29;6.20;86.40
66610;DHT22;53468;48.276;14.416;2024-03-07T16:23:32;6.10;86.40
66610;DHT22;53468;48.276;14.416;2024-03-07T16:28:34;6.00;86.30
66610;DHT22;53468;48.276;14.416;2024-03-07T16:33:37;5.90;87.10
66610;DHT22;53468;48.276;14.416;2024-03-07T16:38:41;5.90;87.90
66610;DHT22;53468;48.276;14.416;2024-03-07T16:43:43;5.90;87.80
66610;DHT22;53468;48.276;14.416;2024-03-07T16:48:45;5.90;88.40
66610;DHT22;53468;48.276;14.416;2024-03-07T16:53:48;5.70;88.00
66610;DHT22;53468;48.276;14.416;2024-03-07T16:58:51;5.70;88.70
66610;DHT22;53468;48.276;14.416;2024-03-07T17:03:53;5.50;89.20
66610;DHT22;53468;48.276;14.416;2024-03-07T17:08:56;5.40;90.00
66610;DHT22;53468;48.276;14.416;2024-03-07T17:13:59;5.30;90.10
66610;DHT22;53468;48.276;14.416;2024-03-07T17:19:01;5.20;90.20
66610;DHT22;53468;48.276;14.416;2024-03-07T17:24:12;5.10;90.40
66610;DHT22;53468;48.276;14.416;2024-03-07T17:29:17;5.00;90.70
66610;DHT22;53468;48.276;14.416;2024-03-07T17:34:21;4.80;90.90
66610;DHT22;53468;48.276;14.416;2024-03-07T17:39:26;4.80;91.00
66610;DHT22;53468;48.276;14.416;2024-03-07T17:44:29;4.80;91.50
66610;DHT22;53468;48.276;14.416;2024-03-07T17:49:31;4.70;91.50
66610;DHT22;53468;48.276;14.416;2024-03-07T17:54:35;4.80;91.40
66610;DHT22;53468;48.276;14.416;2024-03-07T17:59:37;4.80;91.70
66610;DHT22;53468;48.276;14.416;2024-03-07T18:04:41;4.70;91.80
66610;DHT22;53468;48.276;14.416;2024-03-07T18:09:51;4.70;91.90
66610;DHT22;53468;48.276;14.416;2024-03-07T18:14:54;4.80;91.70
66610;DHT22;53468;48.276;14.416;2024-03-07T18:19:56;4.80;91.80
66610;DHT22;53468;48.276;14.416;2024-03-07T18:25:02;4.80;91.70
66610;DHT22;53468;48.276;14.416;2024-03-07T18:30:05;4.80;91.80
66610;DHT22;53468;48.276;14.416;2024-03-07T18:35:13;4.80;91.70
66610;DHT22;53468;48.276;14.416;2024-03-07T18:40:18;4.80;91.50
66610;DHT22;53468;48.276;14.416;2024-03-07T18:45:23;4.70;91.80
66610;DHT22;53468;48.276;14.416;2024-03-07T18:50:26;4.70;91.80
66610;DHT22;53468;48.276;14.416;2024-03-07T18:55:30;4.70;92.00
66610;DHT22;53468;48.276;14.416;2024-03-07T19:00:32;4.70;91.90
66610;DHT22;53468;48.276;14.416;2024-03-07T19:05:38;4.70;92.00
66610;DHT22;53468;48.276;14.416;2024-03-07T19:10:44;4.70;92.00
66610;DHT22;53468;48.276;14.416;2024-03-07T19:15:48;4.70;92.20
66610;DHT22;53468;48.276;14.416;2024-03-07T19:20:52;4.60;92.20
66610;DHT22;53468;48.276;14.416;2024-03-07T19:25:56;4.60;92.30
66610;DHT22;53468;48.276;14.416;2024-03-07T19:31:04;4.60;92.60
66610;DHT22;53468;48.276;14.416;2024-03-07T19:36:14;4.70;92.50
66610;DHT22;53468;48.276;14.416;2024-03-07T19:41:18;4.70;92.40
66610;DHT22;53468;48.276;14.416;2024-03-07T19:46:23;4.80;92.30
66610;DHT22;53468;48.276;14.416;2024-03-07T19:51:28;4.80;92.10
66610;DHT22;53468;48.276;14.416;2024-03-07T19:56:33;4.80;92.10
66610;DHT22;53468;48.276;14.416;2024-03-07T20:01:36;4.80;92.10
66610;DHT22;53468;48.276;14.416;2024-03-07T20:06:39;4.80;92.10
66610;DHT22;53468;48.276;14.416;2024-03-07T20:11:43;4.90;92.20
66610;DHT22;53468;48.276;14.416;2024-03-07T20:16:47;4.80;92.30
66610;DHT22;53468;48.276;14.416;2024-03-07T20:21:51;4.70;92.50
66610;DHT22;53468;48.276;14.416;2024-03-07T20:26:58;4.70;92.30
66610;DHT22;53468;48.276;14.416;2024-03-07T20:32:03;4.70;92.40
66610;DHT22;53468;48.276;14.416;2024-03-07T20:37:08;4.70;92.30
66610;DHT22;53468;48.276;14.416;2024-03-07T20:42:15;4.70;92.30
66610;DHT22;53468;48.276;14.416;2024-03-07T20:47:18;4.70;92.40
66610;DHT22;53468;48.276;14.416;2024-03-07T20:52:21;4.80;92.40
66610;DHT22;53468;48.276;14.416;2024-03-07T20:57:26;4.80;92.50
66610;DHT22;53468;48.276;14.416;2024-03-07T21:02:29;4.80;92.30
66610;DHT22;53468;48.276;14.416;2024-03-07T21:07:33;4.80;92.40
66610;DHT22;53468;48.276;14.416;2024-03-07T21:12:37;4.80;92.20
66610;DHT22;53468;48.276;14.416;2024-03-07T21:17:41;4.90;92.50
66610;DHT22;53468;48.276;14.416;2024-03-07T21:22:44;4.90;92.50
66610;DHT22;53468;48.276;14.416;2024-03-07T21:27:48;4.90;92.20
66610;DHT22;53468;48.276;14.416;2024-03-07T21:32:51;5.00;92.30
66610;DHT22;53468;48.276;14.416;2024-03-07T21:37:54;5.00;92.40
66610;DHT22;53468;48.276;14.416;2024-03-07T21:42:57;5.00;92.10
66610;DHT22;53468;48.276;14.416;2024-03-07T21:48:01;5.00;92.30
66610;DHT22;53468;48.276;14.416;2024-03-07T21:53:06;5.00;92.20
66610;DHT22;53468;48.276;14.416;2024-03-07T21:58:10;5.00;92.30
66610;DHT22;53468;48.276;14.416;2024-03-07T22:03:12;4.90;92.10
66610;DHT22;53468;48.276;14.416;2024-03-07T22:08:14;4.90;92.20
66610;DHT22;53468;48.276;14.416;2024-03-07T22:13:18;4.90;92.00
66610;DHT22;53468;48.276;14.416;2024-03-07T22:18:20;4.90;91.90
66610;DHT22;53468;48.276;14.416;2024-03-07T22:23:24;4.80;91.70
66610;DHT22;53468;48.276;14.416;2024-03-07T22:28:27;4.80;91.70
66610;DHT22;53468;48.276;14.416;2024-03-07T22:33:29;4.80;92.10
66610;DHT22;53468;48.276;14.416;2024-03-07T22:38:32;4.80;92.20
66610;DHT22;53468;48.276;14.416;2024-03-07T22:43:38;4.80;91.80
66610;DHT22;53468;48.276;14.416;2024-03-07T22:48:41;4.70;91.50
66610;DHT22;53468;48.276;14.416;2024-03-07T22:53:43;4.70;91.80
66610;DHT22;53468;48.276;14.416;2024-03-07T22:58:46;4.60;91.30
66610;DHT22;53468;48.276;14.416;2024-03-07T23:03:48;4.60;90.90
66610;DHT22;53468;48.276;14.416;2024-03-07T23:08:50;4.50;91.00
66610;DHT22;53468;48.276;14.416;2024-03-07T23:13:55;4.50;91.20
66610;DHT22;53468;48.276;14.416;2024-03-07T23:18:57;4.40;91.10
66610;DHT22;53468;48.276;14.416;2024-03-07T23:24:00;4.40;91.00
66610;DHT22;53468;48.276;14.416;2024-03-07T23:29:03;4.40;91.30
66610;DHT22;53468;48.276;14.416;2024-03-07T23:34:05;4.40;91.20
66610;DHT22;53468;48.276;14.416;2024-03-07T23:39:07;4.30;91.20
66610;DHT22;53468;48.276;14.416;2024-03-07T23:44:11;4.30;91.30
66610;DHT22;53468;48.276;14.416;2024-03-07T23:49:14;4.30;91.20
66610;DHT22;53468;48.276;14.416;2024-03-07T23:54:16;4.30;91.30
66610;DHT22;53468;48.276;14.416;2024-03-07T23:59:19;4.30;90.90
